sensor_id;sensor_type;location;lat;lon;timestamp;pressure;altitude;pressure_sealevel;temperature;humidity
10652;BME280;5374;42.742;23.266;2023-07-30T00:02:36;95233.44;;;20.90;68.15
10652;BME280;5374;42.742;23.266;2023-07-30T00:05:23;95240.75;;;20.90;68.17
10652;BME280;5374;42.742;23.266;2023-07-30T00:08:10;95234.72;;;20.84;68.39
10652;BME280;5374;42.742;23.266;2023-07-30T00:10:57;95229.16;;;20.80;68.05
10652;BME280;5374;42.742;23.266;2023-07-30T00:13:46;95240.59;;;20.86;69.02
10652;BME280;5374;42.742;23.266;2023-07-30T00:16:33;95230.63;;;20.78;69.61
10652;BME280;5374;42.742;23.266;2023-07-30T00:19:20;95237.56;;;20.79;69.58
10652;BME280;5374;42.742;23.266;2023-07-30T00:22:07;95241.72;;;20.76;69.72
10652;BME280;5374;42.742;23.266;2023-07-30T00:24:54;95244.75;;;20.75;69.68
10652;BME280;5374;42.742;23.266;2023-07-30T00:27:41;95216.81;;;20.54;69.42
10652;BME280;5374;42.742;23.266;2023-07-30T00:30:30;95232.84;;;20.67;69.21
10652;BME280;5374;42.742;23.266;2023-07-30T00:33:17;95234.25;;;20.65;69.33
10652;BME280;5374;42.742;23.266;2023-07-30T00:36:04;95216.16;;;20.57;69.24
10652;BME280;5374;42.742;23.266;2023-07-30T00:38:51;95216.66;;;20.50;69.56
10652;BME280;5374;42.742;23.266;2023-07-30T00:41:38;95230.13;;;20.59;69.47
10652;BME280;5374;42.742;23.266;2023-07-30T00:44:26;95222.03;;;20.41;69.64
10652;BME280;5374;42.742;23.266;2023-07-30T00:47:14;95235.06;;;20.48;70.11
10652;BME280;5374;42.742;23.266;2023-07-30T00:50:01;95223.59;;;20.34;70.13
10652;BME280;5374;42.742;23.266;2023-07-30T00:52:49;95227.25;;;20.29;70.14
10652;BME280;5374;42.742;23.266;2023-07-30T00:55:36;95224.38;;;20.17;70.37
10652;BME280;5374;42.742;23.266;2023-07-30T00:58:24;95224.50;;;20.12;70.39
10652;BME280;5374;42.742;23.266;2023-07-30T01:01:11;95237.38;;;20.15;70.84
10652;BME280;5374;42.742;23.266;2023-07-30T01:04:00;95240.38;;;20.13;70.61
10652;BME280;5374;42.742;23.266;2023-07-30T01:06:47;95214.50;;;19.95;70.93
10652;BME280;5374;42.742;23.266;2023-07-30T01:09:35;95233.88;;;20.06;71.00
10652;BME280;5374;42.742;23.266;2023-07-30T01:12:23;95240.22;;;20.10;71.26
10652;BME280;5374;42.742;23.266;2023-07-30T01:15:10;95235.59;;;20.02;71.66
10652;BME280;5374;42.742;23.266;2023-07-30T01:17:58;95220.19;;;19.85;72.01
10652;BME280;5374;42.742;23.266;2023-07-30T01:20:46;95235.09;;;19.83;72.35
10652;BME280;5374;42.742;23.266;2023-07-30T01:23:35;95242.69;;;19.89;72.21
10652;BME280;5374;42.742;23.266;2023-07-30T01:26:24;95240.97;;;19.85;72.40
10652;BME280;5374;42.742;23.266;2023-07-30T01:29:18;95241.28;;;19.83;72.23
10652;BME280;5374;42.742;23.266;2023-07-30T01:32:11;95234.44;;;19.77;72.52
10652;BME280;5374;42.742;23.266;2023-07-30T01:35:00;95237.75;;;19.74;72.65
10652;BME280;5374;42.742;23.266;2023-07-30T01:37:48;95250.91;;;19.75;72.56
10652;BME280;5374;42.742;23.266;2023-07-30T01:40:37;95255.16;;;19.68;72.73
10652;BME280;5374;42.742;23.266;2023-07-30T01:43:24;95248.34;;;19.70;73.22
10652;BME280;5374;42.742;23.266;2023-07-30T01:46:11;95223.72;;;19.55;73.30
10652;BME280;5374;42.742;23.266;2023-07-30T01:48:58;95246.13;;;19.72;73.36
10652;BME280;5374;42.742;23.266;2023-07-30T01:51:46;95251.53;;;19.72;73.83
10652;BME280;5374;42.742;23.266;2023-07-30T01:54:33;95242.63;;;19.63;73.95
10652;BME280;5374;42.742;23.266;2023-07-30T01:57:21;95252.63;;;19.63;73.84
10652;BME280;5374;42.742;23.266;2023-07-30T02:00:09;95252.44;;;19.59;73.87
10652;BME280;5374;42.742;23.266;2023-07-30T02:02:56;95254.66;;;19.57;74.29
10652;BME280;5374;42.742;23.266;2023-07-30T02:05:44;95254.16;;;19.55;73.73
10652;BME280;5374;42.742;23.266;2023-07-30T02:08:31;95238.22;;;19.45;73.94
10652;BME280;5374;42.742;23.266;2023-07-30T02:11:18;95248.28;;;19.53;73.83
10652;BME280;5374;42.742;23.266;2023-07-30T02:14:08;95248.38;;;19.48;74.12
10652;BME280;5374;42.742;23.266;2023-07-30T02:16:55;95223.09;;;19.27;74.16
10652;BME280;5374;42.742;23.266;2023-07-30T02:19:42;95252.50;;;19.45;74.18
10652;BME280;5374;42.742;23.266;2023-07-30T02:22:30;95255.50;;;19.44;74.39
10652;BME280;5374;42.742;23.266;2023-07-30T02:25:17;95250.75;;;19.41;74.36
10652;BME280;5374;42.742;23.266;2023-07-30T02:28:05;95270.06;;;19.43;74.56
10652;BME280;5374;42.742;23.266;2023-07-30T02:30:53;95244.56;;;19.40;74.11
10652;BME280;5374;42.742;23.266;2023-07-30T02:33:40;95258.81;;;19.41;74.27
10652;BME280;5374;42.742;23.266;2023-07-30T02:36:27;95268.50;;;19.42;74.48
10652;BME280;5374;42.742;23.266;2023-07-30T02:39:15;95248.44;;;19.26;74.94
10652;BME280;5374;42.742;23.266;2023-07-30T02:42:02;95263.84;;;19.34;74.78
10652;BME280;5374;42.742;23.266;2023-07-30T02:44:49;95258.78;;;19.32;75.05
10652;BME280;5374;42.742;23.266;2023-07-30T02:47:38;95269.06;;;19.30;74.87
10652;BME280;5374;42.742;23.266;2023-07-30T02:50:25;95268.56;;;19.28;75.38
10652;BME280;5374;42.742;23.266;2023-07-30T02:53:12;95257.78;;;19.28;75.26
10652;BME280;5374;42.742;23.266;2023-07-30T02:55:59;95254.91;;;19.25;75.53
10652;BME280;5374;42.742;23.266;2023-07-30T02:58:46;95260.66;;;19.32;75.50
10652;BME280;5374;42.742;23.266;2023-07-30T03:01:33;95257.78;;;19.28;75.71
10652;BME280;5374;42.742;23.266;2023-07-30T03:04:22;95257.44;;;19.21;76.46
10652;BME280;5374;42.742;23.266;2023-07-30T03:07:10;95267.41;;;19.21;76.96
10652;BME280;5374;42.742;23.266;2023-07-30T03:09:57;95264.72;;;19.21;77.35
10652;BME280;5374;42.742;23.266;2023-07-30T03:12:44;95276.13;;;19.18;77.91
10652;BME280;5374;42.742;23.266;2023-07-30T03:15:31;95265.28;;;19.09;77.95
10652;BME280;5374;42.742;23.266;2023-07-30T03:18:19;95266.09;;;19.09;78.48
10652;BME280;5374;42.742;23.266;2023-07-30T03:21:07;95268.78;;;19.09;78.23
10652;BME280;5374;42.742;23.266;2023-07-30T03:23:54;95272.75;;;19.12;78.03
10652;BME280;5374;42.742;23.266;2023-07-30T03:26:41;95267.69;;;19.10;78.25
10652;BME280;5374;42.742;23.266;2023-07-30T03:29:28;95275.13;;;19.13;77.65
10652;BME280;5374;42.742;23.266;2023-07-30T03:32:15;95259.53;;;19.02;77.14
10652;BME280;5374;42.742;23.266;2023-07-30T03:35:03;95263.16;;;18.97;76.89
10652;BME280;5374;42.742;23.266;2023-07-30T03:37:52;95266.50;;;19.03;76.54
10652;BME280;5374;42.742;23.266;2023-07-30T03:40:39;95271.72;;;18.99;76.89
10652;BME280;5374;42.742;23.266;2023-07-30T03:43:27;95271.09;;;19.02;76.25
10652;BME280;5374;42.742;23.266;2023-07-30T03:46:14;95242.97;;;18.86;75.71
10652;BME280;5374;42.742;23.266;2023-07-30T03:49:01;95270.50;;;19.05;75.99
10652;BME280;5374;42.742;23.266;2023-07-30T03:51:48;95282.13;;;19.15;75.47
10652;BME280;5374;42.742;23.266;2023-07-30T03:54:37;95261.19;;;19.11;75.00
10652;BME280;5374;42.742;23.266;2023-07-30T03:57:24;95276.41;;;19.38;74.35
10652;BME280;5374;42.742;23.266;2023-07-30T04:00:11;95281.63;;;20.23;71.66
10652;BME280;5374;42.742;23.266;2023-07-30T04:02:58;95274.63;;;21.98;64.93
10652;BME280;5374;42.742;23.266;2023-07-30T04:05:45;95286.41;;;23.68;58.00
10652;BME280;5374;42.742;23.266;2023-07-30T04:08:32;95268.44;;;25.01;53.22
10652;BME280;5374;42.742;23.266;2023-07-30T04:11:21;95258.25;;;26.17;49.15
10652;BME280;5374;42.742;23.266;2023-07-30T04:14:08;95278.78;;;27.19;45.99
10652;BME280;5374;42.742;23.266;2023-07-30T04:16:55;95259.81;;;27.65;44.21
10652;BME280;5374;42.742;23.266;2023-07-30T04:19:43;95287.94;;;28.38;43.18
10652;BME280;5374;42.742;23.266;2023-07-30T04:22:30;95272.41;;;28.42;42.58
10652;BME280;5374;42.742;23.266;2023-07-30T04:25:17;95303.38;;;28.79;41.28
10652;BME280;5374;42.742;23.266;2023-07-30T04:28:06;95300.91;;;28.97;41.62
10652;BME280;5374;42.742;23.266;2023-07-30T04:30:53;95299.84;;;29.05;40.96
10652;BME280;5374;42.742;23.266;2023-07-30T04:33:40;95301.53;;;29.13;40.64
10652;BME280;5374;42.742;23.266;2023-07-30T04:36:27;95302.06;;;29.26;40.64
10652;BME280;5374;42.742;23.266;2023-07-30T04:39:14;95307.97;;;29.62;40.22
10652;BME280;5374;42.742;23.266;2023-07-30T04:42:01;95314.59;;;30.42;38.45
10652;BME280;5374;42.742;23.266;2023-07-30T04:44:50;95312.25;;;31.89;35.99
10652;BME280;5374;42.742;23.266;2023-07-30T04:47:37;95282.34;;;33.19;33.77
10652;BME280;5374;42.742;23.266;2023-07-30T04:50:24;95305.22;;;34.48;32.28
10652;BME280;5374;42.742;23.266;2023-07-30T04:53:11;95324.25;;;35.55;30.66
10652;BME280;5374;42.742;23.266;2023-07-30T04:55:58;95326.06;;;36.53;29.15
10652;BME280;5374;42.742;23.266;2023-07-30T04:58:45;95322.72;;;37.71;27.43
10652;BME280;5374;42.742;23.266;2023-07-30T05:01:34;95323.91;;;38.75;26.29
10652;BME280;5374;42.742;23.266;2023-07-30T05:04:21;95315.97;;;39.63;24.62
10652;BME280;5374;42.742;23.266;2023-07-30T05:07:08;95324.75;;;40.54;24.37
10652;BME280;5374;42.742;23.266;2023-07-30T05:09:55;95309.44;;;41.19;23.22
10652;BME280;5374;42.742;23.266;2023-07-30T05:12:42;95321.75;;;41.96;22.46
10652;BME280;5374;42.742;23.266;2023-07-30T05:15:29;95327.34;;;42.27;21.47
10652;BME280;5374;42.742;23.266;2023-07-30T05:18:18;95324.47;;;42.89;21.51
10652;BME280;5374;42.742;23.266;2023-07-30T05:21:05;95319.50;;;43.20;21.13
10652;BME280;5374;42.742;23.266;2023-07-30T05:23:52;95332.88;;;43.80;20.65
10652;BME280;5374;42.742;23.266;2023-07-30T05:26:39;95321.00;;;43.94;20.28
10652;BME280;5374;42.742;23.266;2023-07-30T05:29:26;95326.72;;;44.18;20.49
10652;BME280;5374;42.742;23.266;2023-07-30T05:32:14;95297.28;;;44.23;19.82
10652;BME280;5374;42.742;23.266;2023-07-30T05:35:04;95319.09;;;44.52;19.96
10652;BME280;5374;42.742;23.266;2023-07-30T05:37:51;95305.59;;;44.50;20.00
10652;BME280;5374;42.742;23.266;2023-07-30T05:40:38;95321.81;;;44.37;20.10
10652;BME280;5374;42.742;23.266;2023-07-30T05:43:25;95324.00;;;43.82;20.90
10652;BME280;5374;42.742;23.266;2023-07-30T05:46:12;95323.22;;;42.90;21.50
10652;BME280;5374;42.742;23.266;2023-07-30T05:49:00;95338.22;;;42.34;22.37
10652;BME280;5374;42.742;23.266;2023-07-30T05:51:48;95326.75;;;41.36;22.39
10652;BME280;5374;42.742;23.266;2023-07-30T05:54:35;95324.59;;;40.71;23.31
10652;BME280;5374;42.742;23.266;2023-07-30T05:57:22;95331.84;;;40.05;24.12
10652;BME280;5374;42.742;23.266;2023-07-30T06:00:10;95337.88;;;39.32;24.58
10652;BME280;5374;42.742;23.266;2023-07-30T06:02:57;95320.22;;;38.13;25.55
10652;BME280;5374;42.742;23.266;2023-07-30T06:05:44;95324.19;;;37.76;26.69
10652;BME280;5374;42.742;23.266;2023-07-30T06:08:33;95330.75;;;37.66;26.95
10652;BME280;5374;42.742;23.266;2023-07-30T06:11:20;95338.81;;;37.37;27.58
10652;BME280;5374;42.742;23.266;2023-07-30T06:14:08;95327.47;;;37.08;27.35
10652;BME280;5374;42.742;23.266;2023-07-30T06:16:55;95324.72;;;36.84;28.48
10652;BME280;5374;42.742;23.266;2023-07-30T06:19:42;95328.91;;;36.73;28.21
10652;BME280;5374;42.742;23.266;2023-07-30T06:22:29;95324.06;;;36.53;28.38
10652;BME280;5374;42.742;23.266;2023-07-30T06:25:18;95325.63;;;36.31;28.32
10652;BME280;5374;42.742;23.266;2023-07-30T06:28:05;95317.34;;;36.01;29.51
10652;BME280;5374;42.742;23.266;2023-07-30T06:30:53;95312.47;;;35.51;29.76
10652;BME280;5374;42.742;23.266;2023-07-30T06:33:40;95290.22;;;35.31;29.58
10652;BME280;5374;42.742;23.266;2023-07-30T06:36:27;95292.56;;;35.33;29.88
10652;BME280;5374;42.742;23.266;2023-07-30T06:39:14;95302.13;;;35.24;29.99
10652;BME280;5374;42.742;23.266;2023-07-30T06:42:03;95304.53;;;35.19;30.51
10652;BME280;5374;42.742;23.266;2023-07-30T06:44:50;95298.13;;;35.29;30.99
10652;BME280;5374;42.742;23.266;2023-07-30T06:47:37;95273.72;;;35.24;30.15
10652;BME280;5374;42.742;23.266;2023-07-30T06:50:25;95282.03;;;35.20;30.06
10652;BME280;5374;42.742;23.266;2023-07-30T06:53:12;95279.81;;;35.08;29.96
10652;BME280;5374;42.742;23.266;2023-07-30T06:55:59;95286.53;;;35.07;30.92
10652;BME280;5374;42.742;23.266;2023-07-30T06:58:47;95236.25;;;34.89;31.08
10652;BME280;5374;42.742;23.266;2023-07-30T07:01:34;95263.16;;;35.15;30.26
10652;BME280;5374;42.742;23.266;2023-07-30T07:04:21;95273.53;;;35.42;30.07
10652;BME280;5374;42.742;23.266;2023-07-30T07:07:09;95273.50;;;35.08;29.59
10652;BME280;5374;42.742;23.266;2023-07-30T07:09:56;95261.69;;;35.41;30.22
10652;BME280;5374;42.742;23.266;2023-07-30T07:12:43;95261.28;;;35.43;29.03
10652;BME280;5374;42.742;23.266;2023-07-30T07:15:31;95266.66;;;35.19;30.53
10652;BME280;5374;42.742;23.266;2023-07-30T07:18:18;95249.84;;;35.07;30.08
10652;BME280;5374;42.742;23.266;2023-07-30T07:21:06;95270.47;;;35.33;30.89
10652;BME280;5374;42.742;23.266;2023-07-30T07:23:53;95258.09;;;35.44;30.51
10652;BME280;5374;42.742;23.266;2023-07-30T07:26:41;95261.06;;;35.57;29.80
10652;BME280;5374;42.742;23.266;2023-07-30T07:29:28;95266.69;;;35.80;29.16
10652;BME280;5374;42.742;23.266;2023-07-30T07:32:16;95245.00;;;35.18;30.83
10652;BME280;5374;42.742;23.266;2023-07-30T07:35:05;95239.56;;;35.45;29.55
10652;BME280;5374;42.742;23.266;2023-07-30T07:37:52;95244.59;;;35.50;30.16
10652;BME280;5374;42.742;23.266;2023-07-30T07:40:39;95248.13;;;35.20;30.19
10652;BME280;5374;42.742;23.266;2023-07-30T07:43:26;95242.31;;;35.72;29.34
10652;BME280;5374;42.742;23.266;2023-07-30T07:46:14;95236.56;;;35.89;29.20
10652;BME280;5374;42.742;23.266;2023-07-30T07:49:02;95247.06;;;35.98;28.90
10652;BME280;5374;42.742;23.266;2023-07-30T07:51:49;95244.03;;;35.62;29.52
10652;BME280;5374;42.742;23.266;2023-07-30T07:54:36;95205.38;;;35.01;30.86
10652;BME280;5374;42.742;23.266;2023-07-30T07:57:29;95233.69;;;35.70;29.46
10652;BME280;5374;42.742;23.266;2023-07-30T08:00:27;95237.44;;;35.83;28.94
10652;BME280;5374;42.742;23.266;2023-07-30T08:03:14;95218.78;;;36.14;28.88
10652;BME280;5374;42.742;23.266;2023-07-30T08:06:03;95223.72;;;36.49;29.16
10652;BME280;5374;42.742;23.266;2023-07-30T08:08:50;95231.34;;;36.65;27.23
10652;BME280;5374;42.742;23.266;2023-07-30T08:11:37;95223.81;;;36.65;26.99
10652;BME280;5374;42.742;23.266;2023-07-30T08:14:25;95188.00;;;36.58;27.28
10652;BME280;5374;42.742;23.266;2023-07-30T08:17:12;95222.88;;;36.76;27.85
10652;BME280;5374;42.742;23.266;2023-07-30T08:19:59;95221.13;;;36.62;27.82
10652;BME280;5374;42.742;23.266;2023-07-30T08:22:48;95217.91;;;36.63;27.71
10652;BME280;5374;42.742;23.266;2023-07-30T08:25:35;95206.66;;;36.31;27.54
10652;BME280;5374;42.742;23.266;2023-07-30T08:28:23;95213.13;;;36.21;28.18
10652;BME280;5374;42.742;23.266;2023-07-30T08:31:10;95214.75;;;36.18;28.48
10652;BME280;5374;42.742;23.266;2023-07-30T08:33:57;95165.94;;;35.85;27.53
10652;BME280;5374;42.742;23.266;2023-07-30T08:36:44;95181.38;;;35.82;27.64
10652;BME280;5374;42.742;23.266;2023-07-30T08:39:36;95149.03;;;35.52;28.76
10652;BME280;5374;42.742;23.266;2023-07-30T08:42:24;95191.13;;;36.14;28.97
10652;BME280;5374;42.742;23.266;2023-07-30T08:45:11;95130.44;;;35.83;27.29
10652;BME280;5374;42.742;23.266;2023-07-30T08:47:58;95144.84;;;35.94;28.23
10652;BME280;5374;42.742;23.266;2023-07-30T08:50:46;95110.34;;;35.25;29.11
10652;BME280;5374;42.742;23.266;2023-07-30T08:53:34;95161.81;;;35.70;28.31
10652;BME280;5374;42.742;23.266;2023-07-30T08:56:26;95178.09;;;35.91;28.44
10652;BME280;5374;42.742;23.266;2023-07-30T08:59:13;95175.50;;;35.80;29.68
10652;BME280;5374;42.742;23.266;2023-07-30T09:02:16;95195.63;;;36.04;28.72
10652;BME280;5374;42.742;23.266;2023-07-30T09:05:05;95186.81;;;35.89;28.89
10652;BME280;5374;42.742;23.266;2023-07-30T09:07:54;95125.97;;;35.39;28.23
10652;BME280;5374;42.742;23.266;2023-07-30T09:10:41;95157.19;;;35.63;27.77
10652;BME280;5374;42.742;23.266;2023-07-30T09:13:29;95116.19;;;35.35;29.05
10652;BME280;5374;42.742;23.266;2023-07-30T09:16:18;95119.97;;;34.87;28.33
10652;BME280;5374;42.742;23.266;2023-07-30T09:19:06;95117.94;;;34.57;28.98
10652;BME280;5374;42.742;23.266;2023-07-30T09:21:53;95158.06;;;35.26;28.63
10652;BME280;5374;42.742;23.266;2023-07-30T09:24:41;95147.34;;;35.35;29.51
10652;BME280;5374;42.742;23.266;2023-07-30T09:27:31;95096.88;;;35.31;27.24
10652;BME280;5374;42.742;23.266;2023-07-30T09:30:23;95165.94;;;36.08;26.87
10652;BME280;5374;42.742;23.266;2023-07-30T09:33:12;95162.19;;;35.45;27.83
10652;BME280;5374;42.742;23.266;2023-07-30T09:36:07;95158.84;;;35.57;26.46
10652;BME280;5374;42.742;23.266;2023-07-30T09:38:55;95134.31;;;35.36;27.37
10652;BME280;5374;42.742;23.266;2023-07-30T09:41:42;95140.81;;;35.49;26.87
10652;BME280;5374;42.742;23.266;2023-07-30T09:44:32;95125.69;;;35.57;27.43
10652;BME280;5374;42.742;23.266;2023-07-30T09:47:22;95110.63;;;35.61;27.55
10652;BME280;5374;42.742;23.266;2023-07-30T09:50:10;95145.34;;;36.13;27.21
10652;BME280;5374;42.742;23.266;2023-07-30T09:52:58;95086.91;;;35.64;27.32
10652;BME280;5374;42.742;23.266;2023-07-30T09:55:47;95073.88;;;35.41;25.94
10652;BME280;5374;42.742;23.266;2023-07-30T09:58:36;95100.00;;;35.06;27.32
10652;BME280;5374;42.742;23.266;2023-07-30T10:01:25;95122.41;;;34.81;28.15
10652;BME280;5374;42.742;23.266;2023-07-30T10:04:19;95125.72;;;35.26;26.47
10652;BME280;5374;42.742;23.266;2023-07-30T10:07:11;95066.13;;;35.02;26.25
10652;BME280;5374;42.742;23.266;2023-07-30T10:10:02;95117.22;;;35.44;26.30
10652;BME280;5374;42.742;23.266;2023-07-30T10:12:50;95118.25;;;35.54;25.18
10652;BME280;5374;42.742;23.266;2023-07-30T10:15:38;95107.22;;;35.77;26.31
10652;BME280;5374;42.742;23.266;2023-07-30T10:18:33;95113.00;;;35.86;26.42
10652;BME280;5374;42.742;23.266;2023-07-30T10:21:24;95087.47;;;35.79;25.38
10652;BME280;5374;42.742;23.266;2023-07-30T10:24:11;95090.44;;;36.11;25.56
10652;BME280;5374;42.742;23.266;2023-07-30T10:27:05;95095.22;;;35.87;25.53
10652;BME280;5374;42.742;23.266;2023-07-30T10:30:10;95089.88;;;35.73;26.68
10652;BME280;5374;42.742;23.266;2023-07-30T10:33:00;95093.34;;;35.81;26.19
10652;BME280;5374;42.742;23.266;2023-07-30T10:35:47;95077.41;;;35.65;25.90
10652;BME280;5374;42.742;23.266;2023-07-30T10:38:36;95095.97;;;35.64;25.70
10652;BME280;5374;42.742;23.266;2023-07-30T10:41:23;95074.66;;;35.65;26.03
10652;BME280;5374;42.742;23.266;2023-07-30T10:44:24;95071.53;;;35.63;27.11
10652;BME280;5374;42.742;23.266;2023-07-30T10:47:12;95038.91;;;35.31;25.62
10652;BME280;5374;42.742;23.266;2023-07-30T10:50:01;95068.50;;;35.30;26.35
10652;BME280;5374;42.742;23.266;2023-07-30T10:52:50;95026.78;;;34.68;27.08
10652;BME280;5374;42.742;23.266;2023-07-30T10:55:41;95038.38;;;34.86;26.80
10652;BME280;5374;42.742;23.266;2023-07-30T10:58:30;95023.13;;;34.47;26.28
10652;BME280;5374;42.742;23.266;2023-07-30T11:01:24;94951.41;;;34.47;26.56
10652;BME280;5374;42.742;23.266;2023-07-30T11:04:14;95048.44;;;35.00;27.48
10652;BME280;5374;42.742;23.266;2023-07-30T11:07:02;95033.38;;;35.04;25.76
10652;BME280;5374;42.742;23.266;2023-07-30T11:09:58;95008.41;;;35.11;26.68
10652;BME280;5374;42.742;23.266;2023-07-30T11:12:49;95017.28;;;35.49;26.78
10652;BME280;5374;42.742;23.266;2023-07-30T11:15:41;95011.13;;;35.42;26.24
10652;BME280;5374;42.742;23.266;2023-07-30T11:18:31;95008.56;;;35.74;27.24
10652;BME280;5374;42.742;23.266;2023-07-30T11:21:19;95004.44;;;35.86;26.21
10652;BME280;5374;42.742;23.266;2023-07-30T11:24:06;95006.25;;;35.92;24.91
10652;BME280;5374;42.742;23.266;2023-07-30T11:27:00;94988.97;;;35.88;24.93
10652;BME280;5374;42.742;23.266;2023-07-30T11:29:55;94997.84;;;36.00;26.69
10652;BME280;5374;42.742;23.266;2023-07-30T11:32:42;94995.44;;;36.02;26.87
10652;BME280;5374;42.742;23.266;2023-07-30T11:35:30;94991.53;;;36.19;26.34
10652;BME280;5374;42.742;23.266;2023-07-30T11:38:18;94996.28;;;36.38;24.80
10652;BME280;5374;42.742;23.266;2023-07-30T11:41:07;94987.97;;;35.55;25.94
10652;BME280;5374;42.742;23.266;2023-07-30T11:43:56;94975.25;;;35.61;25.46
10652;BME280;5374;42.742;23.266;2023-07-30T11:46:54;94984.19;;;35.69;25.44
10652;BME280;5374;42.742;23.266;2023-07-30T11:49:41;94955.66;;;35.52;25.34
10652;BME280;5374;42.742;23.266;2023-07-30T11:52:28;94974.03;;;35.86;25.95
10652;BME280;5374;42.742;23.266;2023-07-30T11:55:16;94967.22;;;35.90;26.00
10652;BME280;5374;42.742;23.266;2023-07-30T11:58:03;94967.06;;;35.97;26.89
10652;BME280;5374;42.742;23.266;2023-07-30T12:00:50;94942.75;;;36.09;26.50
10652;BME280;5374;42.742;23.266;2023-07-30T12:03:39;94939.28;;;36.05;25.88
10652;BME280;5374;42.742;23.266;2023-07-30T12:06:38;94950.81;;;36.19;25.50
10652;BME280;5374;42.742;23.266;2023-07-30T12:09:25;94945.38;;;36.36;26.00
10652;BME280;5374;42.742;23.266;2023-07-30T12:12:12;94938.53;;;36.40;26.15
10652;BME280;5374;42.742;23.266;2023-07-30T12:15:00;94937.53;;;36.50;25.95
10652;BME280;5374;42.742;23.266;2023-07-30T12:17:47;94919.03;;;36.47;24.77
10652;BME280;5374;42.742;23.266;2023-07-30T12:20:36;94929.34;;;36.63;25.03
10652;BME280;5374;42.742;23.266;2023-07-30T12:23:23;94911.78;;;36.53;24.42
10652;BME280;5374;42.742;23.266;2023-07-30T12:26:10;94916.97;;;36.51;24.35
10652;BME280;5374;42.742;23.266;2023-07-30T12:28:58;94922.13;;;36.33;25.35
10652;BME280;5374;42.742;23.266;2023-07-30T12:31:45;94922.38;;;36.39;25.04
10652;BME280;5374;42.742;23.266;2023-07-30T12:34:32;94918.34;;;36.23;24.74
10652;BME280;5374;42.742;23.266;2023-07-30T12:37:21;94912.00;;;36.07;25.06
10652;BME280;5374;42.742;23.266;2023-07-30T12:40:09;94894.34;;;36.01;24.99
10652;BME280;5374;42.742;23.266;2023-07-30T12:42:56;94902.66;;;35.81;25.28
10652;BME280;5374;42.742;23.266;2023-07-30T12:45:44;94908.44;;;35.67;25.91
10652;BME280;5374;42.742;23.266;2023-07-30T12:48:31;94893.84;;;35.66;26.88
10652;BME280;5374;42.742;23.266;2023-07-30T12:51:18;94883.25;;;35.84;26.67
10652;BME280;5374;42.742;23.266;2023-07-30T12:54:07;94886.41;;;36.03;24.91
10652;BME280;5374;42.742;23.266;2023-07-30T12:56:54;94889.72;;;36.34;25.47
10652;BME280;5374;42.742;23.266;2023-07-30T12:59:41;94881.13;;;36.28;25.65
10652;BME280;5374;42.742;23.266;2023-07-30T13:02:28;94876.50;;;36.21;25.89
10652;BME280;5374;42.742;23.266;2023-07-30T13:05:19;94865.59;;;35.78;26.37
10652;BME280;5374;42.742;23.266;2023-07-30T13:08:09;94867.13;;;35.99;26.56
10652;BME280;5374;42.742;23.266;2023-07-30T13:10:57;94872.78;;;36.48;25.99
10652;BME280;5374;42.742;23.266;2023-07-30T13:13:45;94869.00;;;36.74;25.97
10652;BME280;5374;42.742;23.266;2023-07-30T13:16:32;94862.16;;;36.95;24.71
10652;BME280;5374;42.742;23.266;2023-07-30T13:19:19;94866.72;;;37.18;25.07
10652;BME280;5374;42.742;23.266;2023-07-30T13:22:06;94854.03;;;37.04;24.45
10652;BME280;5374;42.742;23.266;2023-07-30T13:24:53;94866.16;;;36.78;25.19
10652;BME280;5374;42.742;23.266;2023-07-30T13:27:42;94867.03;;;36.75;24.89
10652;BME280;5374;42.742;23.266;2023-07-30T13:30:29;94858.28;;;36.60;25.24
10652;BME280;5374;42.742;23.266;2023-07-30T13:33:17;94849.50;;;36.29;26.16
10652;BME280;5374;42.742;23.266;2023-07-30T13:36:05;94863.03;;;36.59;25.49
10652;BME280;5374;42.742;23.266;2023-07-30T13:38:54;94850.41;;;36.75;24.64
10652;BME280;5374;42.742;23.266;2023-07-30T13:41:41;94839.69;;;36.77;24.76
10652;BME280;5374;42.742;23.266;2023-07-30T13:44:30;94848.84;;;36.90;24.86
10652;BME280;5374;42.742;23.266;2023-07-30T13:47:17;94762.91;;;36.48;25.26
10652;BME280;5374;42.742;23.266;2023-07-30T13:50:06;94837.59;;;36.97;25.16
10652;BME280;5374;42.742;23.266;2023-07-30T13:52:53;94842.09;;;36.91;25.21
10652;BME280;5374;42.742;23.266;2023-07-30T13:55:41;94839.56;;;36.64;25.56
10652;BME280;5374;42.742;23.266;2023-07-30T13:58:28;94839.84;;;36.53;25.12
10652;BME280;5374;42.742;23.266;2023-07-30T14:01:16;94835.69;;;36.45;26.27
10652;BME280;5374;42.742;23.266;2023-07-30T14:04:04;94831.53;;;36.37;25.96
10652;BME280;5374;42.742;23.266;2023-07-30T14:06:51;94820.69;;;36.10;25.72
10652;BME280;5374;42.742;23.266;2023-07-30T14:09:38;94808.66;;;36.01;26.79
10652;BME280;5374;42.742;23.266;2023-07-30T14:12:25;94824.53;;;35.96;26.68
10652;BME280;5374;42.742;23.266;2023-07-30T14:15:12;94809.47;;;35.81;27.01
10652;BME280;5374;42.742;23.266;2023-07-30T14:18:02;94814.16;;;35.84;26.54
10652;BME280;5374;42.742;23.266;2023-07-30T14:20:49;94815.09;;;35.94;26.49
10652;BME280;5374;42.742;23.266;2023-07-30T14:23:36;94816.47;;;35.86;26.57
10652;BME280;5374;42.742;23.266;2023-07-30T14:26:23;94781.69;;;35.49;27.33
10652;BME280;5374;42.742;23.266;2023-07-30T14:29:10;94807.13;;;35.60;27.28
10652;BME280;5374;42.742;23.266;2023-07-30T14:31:58;94785.06;;;35.40;27.59
10652;BME280;5374;42.742;23.266;2023-07-30T14:34:46;94800.00;;;35.43;26.95
10652;BME280;5374;42.742;23.266;2023-07-30T14:37:33;94789.09;;;35.36;27.60
10652;BME280;5374;42.742;23.266;2023-07-30T14:40:21;94801.91;;;35.46;27.31
10652;BME280;5374;42.742;23.266;2023-07-30T14:43:08;94808.91;;;35.30;26.42
10652;BME280;5374;42.742;23.266;2023-07-30T14:45:55;94801.59;;;35.20;27.07
10652;BME280;5374;42.742;23.266;2023-07-30T14:48:43;94804.28;;;35.24;27.36
10652;BME280;5374;42.742;23.266;2023-07-30T14:51:31;94789.56;;;35.30;27.31